sensor_id;sensor_type;location;lat;lon;timestamp;P1;durP1;ratioP1;P2;durP2;ratioP2
7412;SDS011;3748;48.136;11.538;2023-01-29T00:01:29;20.63;;;9.90;;
7412;SDS011;3748;48.136;11.538;2023-01-29T00:03:58;19.67;;;10.70;;
7412;SDS011;3748;48.136;11.538;2023-01-29T00:06:25;21.60;;;11.70;;
7412;SDS011;3748;48.136;11.538;2023-01-29T00:08:54;19.07;;;10.37;;
7412;SDS011;3748;48.136;11.538;2023-01-29T00:11:21;18.33;;;9.97;;
7412;SDS011;3748;48.136;11.538;2023-01-29T00:13:49;18.17;;;10.00;;
7412;SDS011;3748;48.136;11.538;2023-01-29T00:16:18;17.73;;;10.50;;
7412;SDS011;3748;48.136;11.538;2023-01-29T00:18:45;16.07;;;10.10;;
7412;SDS011;3748;48.136;11.538;2023-01-29T00:21:14;20.00;;;11.80;;
7412;SDS011;3748;48.136;11.538;2023-01-29T00:23:42;17.07;;;10.23;;
7412;SDS011;3748;48.136;11.538;2023-01-29T00:26:09;15.37;;;10.00;;
7412;SDS011;3748;48.136;11.538;2023-01-29T00:28:37;19.40;;;9.90;;
7412;SDS011;3748;48.136;11.538;2023-01-29T00:31:06;15.93;;;9.73;;
7412;SDS011;3748;48.136;11.538;2023-01-29T00:33:34;20.63;;;11.70;;
7412;SDS011;3748;48.136;11.538;2023-01-29T00:36:02;16.40;;;11.40;;
7412;SDS011;3748;48.136;11.538;2023-01-29T00:38:32;17.67;;;9.20;;
7412;SDS011;3748;48.136;11.538;2023-01-29T00:41:04;19.60;;;10.73;;
7412;SDS011;3748;48.136;11.538;2023-01-29T00:43:48;16.70;;;9.67;;
7412;SDS011;3748;48.136;11.538;2023-01-29T00:46:33;20.40;;;11.40;;
7412;SDS011;3748;48.136;11.538;2023-01-29T00:49:00;18.00;;;11.10;;
7412;SDS011;3748;48.136;11.538;2023-01-29T00:51:27;21.67;;;11.50;;
7412;SDS011;3748;48.136;11.538;2023-01-29T00:53:57;24.57;;;10.60;;
7412;SDS011;3748;48.136;11.538;2023-01-29T00:56:25;18.93;;;11.50;;
7412;SDS011;3748;48.136;11.538;2023-01-29T00:58:52;22.17;;;10.43;;
7412;SDS011;3748;48.136;11.538;2023-01-29T01:01:19;18.07;;;10.87;;
7412;SDS011;3748;48.136;11.538;2023-01-29T01:04:01;14.70;;;9.20;;
7412;SDS011;3748;48.136;11.538;2023-01-29T01:06:28;19.73;;;10.77;;
7412;SDS011;3748;48.136;11.538;2023-01-29T01:08:55;14.90;;;9.67;;
7412;SDS011;3748;48.136;11.538;2023-01-29T01:11:41;23.23;;;9.60;;
7412;SDS011;3748;48.136;11.538;2023-01-29T01:14:08;20.70;;;9.97;;
7412;SDS011;3748;48.136;11.538;2023-01-29T01:16:35;17.60;;;10.63;;
7412;SDS011;3748;48.136;11.538;2023-01-29T01:19:02;16.43;;;9.70;;
7412;SDS011;3748;48.136;11.538;2023-01-29T01:21:29;22.23;;;10.40;;
7412;SDS011;3748;48.136;11.538;2023-01-29T01:23:57;18.37;;;8.80;;
7412;SDS011;3748;48.136;11.538;2023-01-29T01:26:24;15.20;;;9.00;;
7412;SDS011;3748;48.136;11.538;2023-01-29T01:28:52;20.27;;;10.70;;
7412;SDS011;3748;48.136;11.538;2023-01-29T01:31:19;18.07;;;9.70;;
7412;SDS011;3748;48.136;11.538;2023-01-29T01:33:54;20.53;;;10.60;;
7412;SDS011;3748;48.136;11.538;2023-01-29T01:36:21;15.60;;;9.13;;
7412;SDS011;3748;48.136;11.538;2023-01-29T01:38:48;18.23;;;9.93;;
7412;SDS011;3748;48.136;11.538;2023-01-29T01:41:16;15.93;;;9.93;;
7412;SDS011;3748;48.136;11.538;2023-01-29T01:43:48;16.00;;;8.50;;
7412;SDS011;3748;48.136;11.538;2023-01-29T01:46:19;16.47;;;9.07;;
7412;SDS011;3748;48.136;11.538;2023-01-29T01:48:47;14.93;;;8.57;;
7412;SDS011;3748;48.136;11.538;2023-01-29T01:51:18;13.03;;;8.03;;
7412;SDS011;3748;48.136;11.538;2023-01-29T01:53:49;16.00;;;8.43;;
7412;SDS011;3748;48.136;11.538;2023-01-29T01:56:20;12.47;;;8.33;;
7412;SDS011;3748;48.136;11.538;2023-01-29T01:58:53;13.30;;;8.37;;
7412;SDS011;3748;48.136;11.538;2023-01-29T02:01:26;14.03;;;8.50;;
7412;SDS011;3748;48.136;11.538;2023-01-29T02:03:55;14.43;;;8.13;;
7412;SDS011;3748;48.136;11.538;2023-01-29T02:06:53;11.40;;;7.20;;
7412;SDS011;3748;48.136;11.538;2023-01-29T02:09:39;13.90;;;7.87;;
7412;SDS011;3748;48.136;11.538;2023-01-29T02:12:11;12.50;;;8.70;;
7412;SDS011;3748;48.136;11.538;2023-01-29T02:14:41;15.03;;;8.37;;
7412;SDS011;3748;48.136;11.538;2023-01-29T02:17:11;13.47;;;7.00;;
7412;SDS011;3748;48.136;11.538;2023-01-29T02:19:42;12.77;;;7.10;;
7412;SDS011;3748;48.136;11.538;2023-01-29T02:25:16;10.63;;;6.57;;
7412;SDS011;3748;48.136;11.538;2023-01-29T02:28:20;10.67;;;6.83;;
7412;SDS011;3748;48.136;11.538;2023-01-29T02:31:03;12.90;;;8.13;;
7412;SDS011;3748;48.136;11.538;2023-01-29T02:33:38;12.03;;;6.63;;
7412;SDS011;3748;48.136;11.538;2023-01-29T02:36:16;12.40;;;7.20;;
7412;SDS011;3748;48.136;11.538;2023-01-29T02:38:54;10.53;;;6.63;;
7412;SDS011;3748;48.136;11.538;2023-01-29T02:41:27;11.23;;;6.73;;
7412;SDS011;3748;48.136;11.538;2023-01-29T02:44:02;7.57;;;5.73;;
7412;SDS011;3748;48.136;11.538;2023-01-29T02:46:34;11.57;;;6.67;;
7412;SDS011;3748;48.136;11.538;2023-01-29T02:49:06;10.47;;;6.60;;
7412;SDS011;3748;48.136;11.538;2023-01-29T02:51:37;7.23;;;5.70;;
7412;SDS011;3748;48.136;11.538;2023-01-29T02:54:11;9.40;;;6.30;;
7412;SDS011;3748;48.136;11.538;2023-01-29T02:56:43;8.50;;;5.77;;
7412;SDS011;3748;48.136;11.538;2023-01-29T02:59:19;13.53;;;6.97;;
7412;SDS011;3748;48.136;11.538;2023-01-29T03:01:51;13.07;;;6.93;;
7412;SDS011;3748;48.136;11.538;2023-01-29T03:04:21;12.57;;;8.10;;
7412;SDS011;3748;48.136;11.538;2023-01-29T03:06:57;12.47;;;7.40;;
7412;SDS011;3748;48.136;11.538;2023-01-29T03:09:29;9.33;;;7.27;;
7412;SDS011;3748;48.136;11.538;2023-01-29T03:12:01;10.90;;;6.17;;
7412;SDS011;3748;48.136;11.538;2023-01-29T03:14:44;8.47;;;6.20;;
7412;SDS011;3748;48.136;11.538;2023-01-29T03:17:37;8.77;;;6.90;;
7412;SDS011;3748;48.136;11.538;2023-01-29T03:20:10;10.57;;;7.40;;
7412;SDS011;3748;48.136;11.538;2023-01-29T03:22:43;14.87;;;7.13;;
7412;SDS011;3748;48.136;11.538;2023-01-29T03:25:16;10.47;;;6.87;;
7412;SDS011;3748;48.136;11.538;2023-01-29T03:28:03;14.50;;;8.57;;
7412;SDS011;3748;48.136;11.538;2023-01-29T03:30:52;12.03;;;7.50;;
7412;SDS011;3748;48.136;11.538;2023-01-29T03:33:39;14.30;;;7.57;;
7412;SDS011;3748;48.136;11.538;2023-01-29T03:36:12;11.37;;;7.13;;
7412;SDS011;3748;48.136;11.538;2023-01-29T03:38:42;13.97;;;7.30;;
7412;SDS011;3748;48.136;11.538;2023-01-29T03:41:12;11.23;;;7.50;;
7412;SDS011;3748;48.136;11.538;2023-01-29T03:43:47;13.53;;;7.40;;
7412;SDS011;3748;48.136;11.538;2023-01-29T03:46:22;12.17;;;6.77;;
7412;SDS011;3748;48.136;11.538;2023-01-29T03:57:42;9.07;;;5.80;;
7412;SDS011;3748;48.136;11.538;2023-01-29T04:00:20;8.47;;;6.47;;
7412;SDS011;3748;48.136;11.538;2023-01-29T04:02:54;11.87;;;7.50;;
7412;SDS011;3748;48.136;11.538;2023-01-29T04:05:37;19.10;;;8.23;;
7412;SDS011;3748;48.136;11.538;2023-01-29T04:08:29;13.07;;;8.17;;
7412;SDS011;3748;48.136;11.538;2023-01-29T04:11:01;10.33;;;6.73;;
7412;SDS011;3748;48.136;11.538;2023-01-29T04:13:33;13.73;;;7.30;;
7412;SDS011;3748;48.136;11.538;2023-01-29T04:16:02;12.47;;;8.00;;
7412;SDS011;3748;48.136;11.538;2023-01-29T04:21:09;13.70;;;8.63;;
7412;SDS011;3748;48.136;11.538;2023-01-29T07:55:29;12.00;;;7.70;;
7412;SDS011;3748;48.136;11.538;2023-01-29T07:58:02;12.63;;;7.60;;
7412;SDS011;3748;48.136;11.538;2023-01-29T08:13:22;12.33;;;6.60;;
7412;SDS011;3748;48.136;11.538;2023-01-29T08:19:02;12.80;;;7.80;;
7412;SDS011;3748;48.136;11.538;2023-01-29T08:21:29;10.70;;;6.60;;
7412;SDS011;3748;48.136;11.538;2023-01-29T08:23:56;14.80;;;6.63;;
7412;SDS011;3748;48.136;11.538;2023-01-29T08:29:00;12.43;;;7.20;;
7412;SDS011;3748;48.136;11.538;2023-01-29T08:39:09;8.97;;;5.73;;
7412;SDS011;3748;48.136;11.538;2023-01-29T08:41:36;8.70;;;6.37;;
7412;SDS011;3748;48.136;11.538;2023-01-29T08:44:04;10.03;;;5.23;;
7412;SDS011;3748;48.136;11.538;2023-01-29T08:46:31;9.93;;;5.80;;
7412;SDS011;3748;48.136;11.538;2023-01-29T08:48:58;12.43;;;6.37;;
7412;SDS011;3748;48.136;11.538;2023-01-29T08:51:25;9.60;;;6.30;;
7412;SDS011;3748;48.136;11.538;2023-01-29T08:53:52;9.90;;;5.63;;
7412;SDS011;3748;48.136;11.538;2023-01-29T08:56:19;11.17;;;6.20;;
7412;SDS011;3748;48.136;11.538;2023-01-29T08:58:46;10.90;;;6.77;;
7412;SDS011;3748;48.136;11.538;2023-01-29T09:01:15;13.93;;;5.80;;
7412;SDS011;3748;48.136;11.538;2023-01-29T09:03:42;7.90;;;4.77;;
7412;SDS011;3748;48.136;11.538;2023-01-29T09:06:10;6.20;;;5.37;;
7412;SDS011;3748;48.136;11.538;2023-01-29T09:08:38;7.27;;;5.93;;
7412;SDS011;3748;48.136;11.538;2023-01-29T09:11:04;10.00;;;6.27;;
7412;SDS011;3748;48.136;11.538;2023-01-29T09:13:32;13.03;;;7.50;;
7412;SDS011;3748;48.136;11.538;2023-01-29T09:21:49;14.20;;;7.67;;
7412;SDS011;3748;48.136;11.538;2023-01-29T09:24:16;10.87;;;6.70;;
7412;SDS011;3748;48.136;11.538;2023-01-29T09:26:43;10.53;;;8.20;;
7412;SDS011;3748;48.136;11.538;2023-01-29T09:39:33;14.40;;;10.53;;
7412;SDS011;3748;48.136;11.538;2023-01-29T09:47:12;16.40;;;9.00;;
7412;SDS011;3748;48.136;11.538;2023-01-29T09:49:42;13.63;;;8.73;;
7412;SDS011;3748;48.136;11.538;2023-01-29T09:57:24;21.00;;;11.13;;
7412;SDS011;3748;48.136;11.538;2023-01-29T09:59:56;14.60;;;8.90;;
7412;SDS011;3748;48.136;11.538;2023-01-29T10:05:18;16.73;;;10.33;;
7412;SDS011;3748;48.136;11.538;2023-01-29T10:10:54;20.90;;;10.67;;
7412;SDS011;3748;48.136;11.538;2023-01-29T10:13:28;17.80;;;9.83;;
7412;SDS011;3748;48.136;11.538;2023-01-29T10:16:17;18.67;;;10.83;;
7412;SDS011;3748;48.136;11.538;2023-01-29T10:21:32;17.13;;;8.90;;
7412;SDS011;3748;48.136;11.538;2023-01-29T10:24:14;17.00;;;9.17;;
7412;SDS011;3748;48.136;11.538;2023-01-29T10:26:47;13.00;;;9.53;;
7412;SDS011;3748;48.136;11.538;2023-01-29T10:29:17;14.30;;;9.13;;
7412;SDS011;3748;48.136;11.538;2023-01-29T10:31:46;15.50;;;9.27;;
7412;SDS011;3748;48.136;11.538;2023-01-29T10:34:18;15.00;;;10.23;;
7412;SDS011;3748;48.136;11.538;2023-01-29T10:36:52;16.90;;;8.93;;
7412;SDS011;3748;48.136;11.538;2023-01-29T10:39:42;17.57;;;10.70;;
7412;SDS011;3748;48.136;11.538;2023-01-29T10:42:13;14.63;;;8.57;;
7412;SDS011;3748;48.136;11.538;2023-01-29T10:44:55;15.80;;;8.80;;
7412;SDS011;3748;48.136;11.538;2023-01-29T10:47:45;13.77;;;8.63;;
7412;SDS011;3748;48.136;11.538;2023-01-29T10:53:21;20.63;;;11.30;;
7412;SDS011;3748;48.136;11.538;2023-01-29T10:56:06;15.37;;;9.97;;
7412;SDS011;3748;48.136;11.538;2023-01-29T10:58:42;15.33;;;11.73;;
7412;SDS011;3748;48.136;11.538;2023-01-29T11:01:15;21.60;;;12.20;;
7412;SDS011;3748;48.136;11.538;2023-01-29T11:03:43;17.33;;;10.10;;
7412;SDS011;3748;48.136;11.538;2023-01-29T11:06:13;17.50;;;9.87;;
7412;SDS011;3748;48.136;11.538;2023-01-29T11:09:17;13.80;;;9.63;;
7412;SDS011;3748;48.136;11.538;2023-01-29T11:11:56;13.80;;;9.20;;
7412;SDS011;3748;48.136;11.538;2023-01-29T11:14:30;15.63;;;9.63;;
7412;SDS011;3748;48.136;11.538;2023-01-29T11:17:15;17.80;;;9.87;;
7412;SDS011;3748;48.136;11.538;2023-01-29T11:19:44;15.63;;;9.70;;
7412;SDS011;3748;48.136;11.538;2023-01-29T11:22:16;11.00;;;8.33;;
7412;SDS011;3748;48.136;11.538;2023-01-29T11:24:45;12.87;;;9.10;;
7412;SDS011;3748;48.136;11.538;2023-01-29T11:27:12;12.93;;;7.73;;
7412;SDS011;3748;48.136;11.538;2023-01-29T11:29:42;13.93;;;10.77;;
7412;SDS011;3748;48.136;11.538;2023-01-29T11:32:23;16.27;;;9.50;;
7412;SDS011;3748;48.136;11.538;2023-01-29T11:34:55;17.40;;;9.70;;
7412;SDS011;3748;48.136;11.538;2023-01-29T11:37:23;18.30;;;11.70;;
7412;SDS011;3748;48.136;11.538;2023-01-29T11:39:57;17.70;;;11.50;;
7412;SDS011;3748;48.136;11.538;2023-01-29T11:42:25;14.70;;;9.07;;
7412;SDS011;3748;48.136;11.538;2023-01-29T11:44:57;14.60;;;8.37;;
7412;SDS011;3748;48.136;11.538;2023-01-29T11:47:27;10.67;;;7.40;;
7412;SDS011;3748;48.136;11.538;2023-01-29T11:49:56;14.43;;;8.90;;
7412;SDS011;3748;48.136;11.538;2023-01-29T11:52:24;17.47;;;11.07;;
7412;SDS011;3748;48.136;11.538;2023-01-29T11:55:00;14.13;;;9.50;;
7412;SDS011;3748;48.136;11.538;2023-01-29T11:57:31;11.60;;;7.97;;
7412;SDS011;3748;48.136;11.538;2023-01-29T12:00:00;13.67;;;9.17;;
7412;SDS011;3748;48.136;11.538;2023-01-29T12:02:33;12.57;;;9.47;;
7412;SDS011;3748;48.136;11.538;2023-01-29T12:05:03;14.93;;;9.30;;
7412;SDS011;3748;48.136;11.538;2023-01-29T12:12:50;16.17;;;10.77;;
7412;SDS011;3748;48.136;11.538;2023-01-29T12:21:46;15.17;;;8.77;;
7412;SDS011;3748;48.136;11.538;2023-01-29T12:24:40;13.73;;;9.07;;
7412;SDS011;3748;48.136;11.538;2023-01-29T12:27:16;16.87;;;11.10;;
7412;SDS011;3748;48.136;11.538;2023-01-29T12:29:50;17.03;;;11.27;;
7412;SDS011;3748;48.136;11.538;2023-01-29T12:32:28;19.47;;;13.23;;
7412;SDS011;3748;48.136;11.538;2023-01-29T14:27:19;11.37;;;7.20;;
7412;SDS011;3748;48.136;11.538;2023-01-29T14:29:57;12.77;;;7.57;;
7412;SDS011;3748;48.136;11.538;2023-01-29T14:32:38;10.40;;;6.90;;
7412;SDS011;3748;48.136;11.538;2023-01-29T14:35:17;12.93;;;7.67;;
7412;SDS011;3748;48.136;11.538;2023-01-29T14:37:56;10.80;;;7.30;;
7412;SDS011;3748;48.136;11.538;2023-01-29T14:40:26;13.90;;;9.43;;
7412;SDS011;3748;48.136;11.538;2023-01-29T14:42:56;9.63;;;6.43;;
7412;SDS011;3748;48.136;11.538;2023-01-29T14:45:27;10.13;;;8.00;;
7412;SDS011;3748;48.136;11.538;2023-01-29T14:47:57;10.70;;;7.43;;
7412;SDS011;3748;48.136;11.538;2023-01-29T14:50:40;11.23;;;6.60;;
7412;SDS011;3748;48.136;11.538;2023-01-29T14:53:29;11.17;;;7.97;;
7412;SDS011;3748;48.136;11.538;2023-01-29T14:56:09;13.13;;;8.93;;
7412;SDS011;3748;48.136;11.538;2023-01-29T14:58:41;11.10;;;7.50;;
7412;SDS011;3748;48.136;11.538;2023-01-29T15:01:20;22.10;;;14.40;;
7412;SDS011;3748;48.136;11.538;2023-01-29T15:03:51;11.37;;;8.77;;
7412;SDS011;3748;48.136;11.538;2023-01-29T16:27:09;18.50;;;9.07;;
7412;SDS011;3748;48.136;11.538;2023-01-29T16:34:49;16.30;;;10.20;;
7412;SDS011;3748;48.136;11.538;2023-01-29T16:37:45;19.20;;;10.47;;
7412;SDS011;3748;48.136;11.538;2023-01-29T16:40:36;15.60;;;9.33;;
7412;SDS011;3748;48.136;11.538;2023-01-29T16:46:21;15.30;;;10.53;;
7412;SDS011;3748;48.136;11.538;2023-01-29T16:49:43;13.10;;;9.97;;
7412;SDS011;3748;48.136;11.538;2023-01-29T16:52:15;15.13;;;9.37;;
7412;SDS011;3748;48.136;11.538;2023-01-29T16:54:58;14.40;;;9.10;;
7412;SDS011;3748;48.136;11.538;2023-01-29T17:01:12;16.47;;;12.37;;
7412;SDS011;3748;48.136;11.538;2023-01-29T17:03:54;15.07;;;9.97;;
7412;SDS011;3748;48.136;11.538;2023-01-29T17:06:31;18.67;;;11.30;;
7412;SDS011;3748;48.136;11.538;2023-01-29T17:17:30;22.10;;;11.10;;
7412;SDS011;3748;48.136;11.538;2023-01-29T17:20:05;24.03;;;12.70;;
7412;SDS011;3748;48.136;11.538;2023-01-29T17:22:38;20.80;;;12.50;;
7412;SDS011;3748;48.136;11.538;2023-01-29T17:25:17;18.63;;;10.63;;
7412;SDS011;3748;48.136;11.538;2023-01-29T17:27:59;19.93;;;9.57;;
7412;SDS011;3748;48.136;11.538;2023-01-29T17:30:32;16.30;;;10.23;;
7412;SDS011;3748;48.136;11.538;2023-01-29T17:33:11;16.47;;;10.07;;
7412;SDS011;3748;48.136;11.538;2023-01-29T17:35:40;20.17;;;11.50;;
7412;SDS011;3748;48.136;11.538;2023-01-29T17:38:16;18.90;;;10.70;;
7412;SDS011;3748;48.136;11.538;2023-01-29T17:40:46;20.77;;;11.70;;
7412;SDS011;3748;48.136;11.538;2023-01-29T17:43:18;20.83;;;12.20;;
7412;SDS011;3748;48.136;11.538;2023-01-29T17:45:46;21.37;;;10.63;;
7412;SDS011;3748;48.136;11.538;2023-01-29T17:51:09;12.20;;;8.23;;
7412;SDS011;3748;48.136;11.538;2023-01-29T17:56:50;17.17;;;10.93;;
7412;SDS011;3748;48.136;11.538;2023-01-29T17:59:23;18.17;;;10.23;;
7412;SDS011;3748;48.136;11.538;2023-01-29T18:12:19;15.63;;;11.23;;
7412;SDS011;3748;48.136;11.538;2023-01-29T18:14:46;17.03;;;10.83;;
7412;SDS011;3748;48.136;11.538;2023-01-29T18:17:14;15.60;;;10.50;;
7412;SDS011;3748;48.136;11.538;2023-01-29T18:19:46;20.00;;;11.70;;
7412;SDS011;3748;48.136;11.538;2023-01-29T18:22:13;20.07;;;12.07;;
7412;SDS011;3748;48.136;11.538;2023-01-29T18:24:42;20.93;;;13.80;;
7412;SDS011;3748;48.136;11.538;2023-01-29T18:27:09;23.30;;;12.07;;
7412;SDS011;3748;48.136;11.538;2023-01-29T18:29:39;17.07;;;11.40;;
7412;SDS011;3748;48.136;11.538;2023-01-29T18:32:06;17.07;;;10.63;;
7412;SDS011;3748;48.136;11.538;2023-01-29T18:34:34;19.07;;;10.73;;
7412;SDS011;3748;48.136;11.538;2023-01-29T18:37:01;23.63;;;14.17;;
7412;SDS011;3748;48.136;11.538;2023-01-29T18:39:28;18.73;;;9.73;;
7412;SDS011;3748;48.136;11.538;2023-01-29T18:41:54;18.50;;;11.60;;
7412;SDS011;3748;48.136;11.538;2023-01-29T18:44:21;16.40;;;9.97;;
7412;SDS011;3748;48.136;11.538;2023-01-29T18:46:50;17.87;;;10.80;;
7412;SDS011;3748;48.136;11.538;2023-01-29T18:49:17;18.43;;;10.23;;
